HBLMB LSZG-LSZB

Flight info

Callsign HBLMB
Flight time N/A
Altitude 5000
Route DCT
Aircraft DA42/L-SBDGRY/S

Departure

Time 2026-04-18 08:26
Airport Grenchen Airfield (LSZG)

Arrival

Time N/A
Airport Bern Airport (LSZB)
Time Latitude Longitude Altitude Speed Heading
2026-04-18 08:07 47.18227 7.41267 1413 ft 0 kts 245°
2026-04-18 08:19 47.18225 7.41260 1416 ft 3 kts 242°
2026-04-18 08:19 47.18197 7.41261 1413 ft 5 kts 156°
2026-04-18 08:19 47.18158 7.41295 1410 ft 8 kts 98°
2026-04-18 08:20 47.18178 7.41366 1410 ft 8 kts 65°
2026-04-18 08:20 47.18204 7.41445 1411 ft 9 kts 64°
2026-04-18 08:20 47.18227 7.41524 1413 ft 8 kts 65°
2026-04-18 08:20 47.18252 7.41604 1414 ft 9 kts 66°
2026-04-18 08:21 47.18273 7.41702 1408 ft 12 kts 95°
2026-04-18 08:21 47.18257 7.41797 1405 ft 3 kts 103°
2026-04-18 08:21 47.18250 7.41838 1405 ft 3 kts 104°
2026-04-18 08:21 47.18249 7.41839 1405 ft 0 kts 104°
2026-04-18 08:23 47.18239 7.41889 1404 ft 11 kts 106°
2026-04-18 08:24 47.18252 7.42007 1409 ft 14 kts 66°
2026-04-18 08:24 47.18295 7.42146 1408 ft 15 kts 64°
2026-04-18 08:24 47.18331 7.42263 1404 ft 9 kts 53°
2026-04-18 08:24 47.18352 7.42311 1403 ft 3 kts 113°
2026-04-18 08:25 47.18343 7.42307 1407 ft 0 kts 246°
2026-04-18 08:25 47.18321 7.42234 1403 ft 34 kts 246°
2026-04-18 08:26 47.18140 7.41649 1419 ft 87 kts 244°
2026-04-18 08:26 47.17874 7.40790 1720 ft 93 kts 246°
2026-04-18 08:26 47.17593 7.39864 1989 ft 106 kts 245°
2026-04-18 08:26 47.17281 7.38857 2227 ft 112 kts 245°
2026-04-18 08:27 47.16861 7.37870 2455 ft 117 kts 216°
2026-04-18 08:27 47.16067 7.37974 2524 ft 132 kts 138°
2026-04-18 08:27 47.15320 7.38804 2649 ft 139 kts 150°
2026-04-18 08:27 47.14476 7.39534 2811 ft 138 kts 148°
2026-04-18 08:28 47.13718 7.40089 2981 ft 113 kts 154°
2026-04-18 08:28 47.13131 7.40733 3314 ft 108 kts 119°
2026-04-18 08:28 47.12951 7.41848 3582 ft 114 kts 96°
2026-04-18 08:28 47.12870 7.42973 3909 ft 109 kts 95°
2026-04-18 08:29 47.12760 7.44112 4161 ft 112 kts 99°
2026-04-18 08:29 47.12623 7.45199 4473 ft 110 kts 100°
2026-04-18 08:29 47.12435 7.46419 4505 ft 136 kts 103°
2026-04-18 08:29 47.12161 7.47855 4467 ft 152 kts 107°
2026-04-18 08:30 47.11868 7.49333 4483 ft 150 kts 104°
2026-04-18 08:30 47.11574 7.50772 4609 ft 148 kts 108°
2026-04-18 08:30 47.11286 7.52287 4541 ft 155 kts 105°
2026-04-18 08:30 47.10982 7.53823 4507 ft 158 kts 107°
2026-04-18 08:31 47.10367 7.55116 4522 ft 158 kts 139°
2026-04-18 08:31 47.09536 7.56176 4521 ft 157 kts 138°
2026-04-18 08:31 47.08713 7.57241 4524 ft 158 kts 138°
2026-04-18 08:31 47.07887 7.58306 4527 ft 158 kts 138°
2026-04-18 08:32 47.07078 7.59359 4522 ft 157 kts 137°
2026-04-18 08:32 47.06283 7.60388 4739 ft 145 kts 139°
2026-04-18 08:32 47.05547 7.61336 4955 ft 139 kts 138°
2026-04-18 08:32 47.04820 7.62268 5076 ft 141 kts 137°
2026-04-18 08:33 47.04084 7.63219 5185 ft 141 kts 137°
2026-04-18 08:33 47.03339 7.64180 5218 ft 146 kts 137°
2026-04-18 08:33 47.02573 7.65160 5221 ft 150 kts 138°
2026-04-18 08:33 47.01775 7.66191 5232 ft 154 kts 138°
2026-04-18 08:34 47.00965 7.67244 5230 ft 155 kts 139°
2026-04-18 08:34 47.00053 7.68070 5215 ft 153 kts 156°
2026-04-18 08:34 46.99060 7.68683 5198 ft 161 kts 158°
2026-04-18 08:34 46.98030 7.69270 5213 ft 156 kts 158°
2026-04-18 08:35 46.97011 7.69833 5219 ft 157 kts 159°
2026-04-18 08:35 46.95920 7.69920 5220 ft 157 kts 183°
2026-04-18 08:35 46.94831 7.69720 5223 ft 159 kts 187°
2026-04-18 08:35 46.93735 7.69507 5215 ft 162 kts 185°
2026-04-18 08:36 46.92622 7.69284 5232 ft 158 kts 193°
2026-04-18 08:36 46.91561 7.69000 5057 ft 157 kts 185°
2026-04-18 08:36 46.90557 7.68858 5061 ft 146 kts 196°
2026-04-18 08:36 46.89658 7.68064 5059 ft 159 kts 222°
2026-04-18 08:37 46.89046 7.66754 5263 ft 156 kts 224°
2026-04-18 08:37 46.88105 7.66863 5430 ft 154 kts 142°
2026-04-18 08:37 46.87166 7.67567 5694 ft 150 kts 164°
2026-04-18 08:37 46.86130 7.67911 5845 ft 154 kts 171°
2026-04-18 08:38 46.85088 7.67973 6106 ft 151 kts 184°
2026-04-18 08:38 46.84023 7.67857 6297 ft 153 kts 187°
2026-04-18 08:38 46.82974 7.67697 6509 ft 152 kts 186°
2026-04-18 08:38 46.81918 7.67465 6705 ft 154 kts 190°
2026-04-18 08:39 46.80857 7.67282 6931 ft 153 kts 184°
2026-04-18 08:39 46.79812 7.67137 7143 ft 153 kts 186°
2026-04-18 08:39 46.78762 7.66984 7414 ft 151 kts 186°
2026-04-18 08:39 46.77686 7.66830 7505 ft 159 kts 187°
2026-04-18 08:40 46.76552 7.66655 7539 ft 167 kts 185°
2026-04-18 08:40 46.75385 7.66484 7526 ft 169 kts 187°
2026-04-18 08:40 46.74254 7.66339 7518 ft 163 kts 186°
2026-04-18 08:40 46.73122 7.66186 7504 ft 163 kts 189°
2026-04-18 08:41 46.72000 7.65961 7530 ft 159 kts 194°
2026-04-18 08:41 46.70903 7.65605 7472 ft 162 kts 194°
2026-04-18 08:41 46.69824 7.65194 7511 ft 162 kts 195°
2026-04-18 08:41 46.68724 7.64735 7532 ft 165 kts 197°
2026-04-18 08:42 46.67658 7.64206 7592 ft 151 kts 202°
2026-04-18 08:42 46.66610 7.63913 7548 ft 160 kts 187°
2026-04-18 08:42 46.65481 7.63967 7638 ft 164 kts 171°
2026-04-18 08:42 46.64376 7.64264 7726 ft 157 kts 145°
2026-04-18 08:43 46.64344 7.65610 7535 ft 174 kts 47°
2026-04-18 08:43 46.64495 7.67215 7598 ft 167 kts 96°
2026-04-18 08:43 46.64477 7.68868 7562 ft 166 kts 86°
2026-04-18 08:43 46.64394 7.70558 7522 ft 163 kts 94°
2026-04-18 08:44 46.64369 7.72171 7475 ft 158 kts 97°
2026-04-18 08:44 46.64275 7.73751 7538 ft 158 kts 92°
2026-04-18 08:44 46.64325 7.75352 7563 ft 160 kts 80°
2026-04-18 08:44 46.64312 7.77002 7528 ft 170 kts 99°
2026-04-18 08:45 46.63887 7.78593 7650 ft 171 kts 121°
2026-04-18 08:45 46.63209 7.80022 7758 ft 170 kts 134°
2026-04-18 08:45 46.62191 7.80759 7818 ft 173 kts 174°
2026-04-18 08:45 46.61044 7.81009 7864 ft 160 kts 172°
2026-04-18 08:46 46.60233 7.81915 8078 ft 159 kts 112°
2026-04-18 08:46 46.59941 7.83470 8327 ft 156 kts 87°
2026-04-18 08:46 46.59988 7.85131 8036 ft 181 kts 109°
2026-04-18 08:46 46.59392 7.86663 8071 ft 168 kts 122°
2026-04-18 08:47 46.58842 7.88097 8387 ft 154 kts 118°
2026-04-18 08:47 46.58360 7.89455 8678 ft 149 kts 120°
2026-04-18 08:47 46.57843 7.90792 8827 ft 149 kts 120°
2026-04-18 08:47 46.57356 7.92033 9230 ft 140 kts 118°
2026-04-18 08:48 46.56904 7.93230 9620 ft 132 kts 121°
2026-04-18 08:48 46.56417 7.94328 10041 ft 125 kts 133°
2026-04-18 08:48 46.55783 7.95120 10390 ft 116 kts 141°
2026-04-18 08:48 46.55428 7.95710 10594 ft 120 kts 121°
2026-04-18 08:49 46.55215 7.97293 10976 ft 120 kts 84°
2026-04-18 08:49 46.55714 7.98231 11122 ft 130 kts 15°
2026-04-18 08:49 46.56290 7.98107 11249 ft 128 kts 323°
2026-04-18 08:49 46.56527 7.96931 11462 ft 133 kts 253°
2026-04-18 08:50 46.55878 7.96081 11779 ft 144 kts 188°
2026-04-18 08:50 46.54988 7.96737 11992 ft 159 kts 118°
2026-04-18 08:50 46.54562 7.98266 11975 ft 163 kts 114°
2026-04-18 08:50 46.53948 7.99569 12049 ft 164 kts 144°
2026-04-18 08:51 46.52942 8.00558 11940 ft 181 kts 143°
2026-04-18 08:51 46.51958 8.01707 11958 ft 186 kts 142°
2026-04-18 08:51 46.50905 8.02841 11922 ft 189 kts 145°
2026-04-18 08:51 46.49828 8.03831 11869 ft 178 kts 147°
2026-04-18 08:52 46.48791 8.04835 11765 ft 182 kts 149°
2026-04-18 08:52 46.47707 8.05754 11614 ft 180 kts 151°
2026-04-18 08:52 46.46633 8.06720 11325 ft 188 kts 148°
2026-04-18 08:52 46.45503 8.06496 11216 ft 179 kts 204°
2026-04-18 08:53 46.44274 8.06560 11217 ft 181 kts 171°
2026-04-18 08:53 46.43075 8.06924 11209 ft 177 kts 169°
2026-04-18 08:53 46.41871 8.07330 11186 ft 178 kts 168°
2026-04-18 08:53 46.40681 8.07794 11224 ft 172 kts 166°
2026-04-18 08:54 46.39550 8.08304 11177 ft 170 kts 162°
2026-04-18 08:54 46.38468 8.08875 11167 ft 163 kts 161°
2026-04-18 08:54 46.37411 8.09424 11200 ft 157 kts 172°
2026-04-18 08:54 46.36388 8.09035 11203 ft 155 kts 214°
2026-04-18 08:55 46.35456 8.08243 11225 ft 155 kts 214°
2026-04-18 08:55 46.34541 8.07440 11243 ft 155 kts 214°
2026-04-18 08:55 46.33603 8.06650 11268 ft 156 kts 213°
2026-04-18 08:55 46.32653 8.05842 11260 ft 158 kts 213°
2026-04-18 08:56 46.31714 8.05030 11282 ft 160 kts 214°
2026-04-18 08:56 46.30768 8.04176 11255 ft 161 kts 215°
2026-04-18 08:56 46.29815 8.03325 11251 ft 159 kts 214°
2026-04-18 08:56 46.28866 8.02500 11267 ft 159 kts 213°
2026-04-18 08:57 46.26974 8.00847 11264 ft 160 kts 214°
2026-04-18 08:57 46.26013 8.00017 11264 ft 161 kts 213°
2026-04-18 08:57 46.25058 7.99170 11259 ft 160 kts 214°
2026-04-18 08:58 46.24124 7.98338 11269 ft 155 kts 214°
2026-04-18 08:58 46.23248 7.97439 11272 ft 155 kts 222°
2026-04-18 08:58 46.22418 7.96427 11272 ft 157 kts 223°
2026-04-18 08:58 46.21597 7.95414 11269 ft 157 kts 223°
2026-04-18 08:59 46.20770 7.94395 11266 ft 155 kts 223°
2026-04-18 08:59 46.19939 7.93369 11268 ft 158 kts 223°
2026-04-18 08:59 46.19118 7.92298 11264 ft 160 kts 227°
2026-04-18 08:59 46.18334 7.91160 11272 ft 159 kts 228°
2026-04-18 09:00 46.17570 7.90040 11280 ft 158 kts 228°
2026-04-18 09:00 46.16806 7.88916 11302 ft 156 kts 228°
2026-04-18 09:00 46.16042 7.87797 11306 ft 157 kts 228°
2026-04-18 09:00 46.15274 7.86665 11302 ft 158 kts 228°
2026-04-18 09:01 46.14512 7.85526 11310 ft 160 kts 228°
2026-04-18 09:01 46.13726 7.84373 11299 ft 162 kts 228°
2026-04-18 09:01 46.12937 7.83211 11286 ft 161 kts 228°
2026-04-18 09:01 46.12159 7.82063 11296 ft 160 kts 228°
2026-04-18 09:02 46.11378 7.80915 11299 ft 161 kts 228°
2026-04-18 09:02 46.10594 7.79760 11298 ft 161 kts 228°
2026-04-18 09:02 46.09818 7.78619 11294 ft 161 kts 230°
2026-04-18 09:02 46.09013 7.77481 11287 ft 161 kts 229°
2026-04-18 09:03 46.08218 7.76358 11286 ft 159 kts 227°
2026-04-18 09:03 46.07439 7.75237 11297 ft 158 kts 228°
2026-04-18 09:03 46.06571 7.74258 11292 ft 162 kts 218°
2026-04-18 09:03 46.05635 7.73319 11298 ft 165 kts 218°
2026-04-18 09:04 46.04700 7.72398 11284 ft 158 kts 219°
2026-04-18 09:04 46.03792 7.71508 11287 ft 158 kts 218°
2026-04-18 09:04 46.02898 7.70615 11297 ft 158 kts 218°
2026-04-18 09:04 46.01994 7.69704 11288 ft 156 kts 219°
2026-04-18 09:05 46.01114 7.68823 11291 ft 156 kts 218°
2026-04-18 09:05 46.00266 7.68006 11353 ft 144 kts 218°
2026-04-18 09:05 45.99427 7.67097 11506 ft 155 kts 214°
2026-04-18 09:05 45.98430 7.66461 11821 ft 154 kts 206°
2026-04-18 09:06 45.98483 7.65357 11420 ft 175 kts 327°
2026-04-18 09:06 45.99008 7.63747 11315 ft 180 kts 278°
2026-04-18 09:06 45.99181 7.62065 11507 ft 162 kts 279°
2026-04-18 09:06 45.99310 7.60509 11597 ft 152 kts 275°
2026-04-18 09:07 45.99470 7.59040 11655 ft 153 kts 283°
2026-04-18 09:07 45.99769 7.57522 11698 ft 159 kts 292°
2026-04-18 09:07 46.00024 7.55912 11402 ft 185 kts 260°
2026-04-18 09:07 45.99521 7.54236 11491 ft 176 kts 252°
2026-04-18 09:08 46.00102 7.53100 11110 ft 186 kts 358°
2026-04-18 09:08 46.00658 7.51653 10831 ft 197 kts 277°
2026-04-18 09:08 46.01458 7.50624 11302 ft 155 kts 337°
2026-04-18 09:08 46.02235 7.49601 11208 ft 167 kts 275°
2026-04-18 09:09 46.01423 7.48579 11173 ft 185 kts 172°
2026-04-18 09:09 46.00417 7.49643 11198 ft 181 kts 135°
2026-04-18 09:09 45.99571 7.50951 11394 ft 178 kts 120°
2026-04-18 09:09 45.99309 7.52621 11465 ft 171 kts 91°
2026-04-18 09:10 45.99181 7.54248 11973 ft 154 kts 105°
2026-04-18 09:10 45.98402 7.55120 12277 ft 157 kts 178°
2026-04-18 09:10 45.97400 7.55649 11233 ft 174 kts 126°
2026-04-18 09:10 45.96103 7.56299 10670 ft 194 kts 176°
2026-04-18 09:11 45.94892 7.56823 10864 ft 178 kts 147°
2026-04-18 09:11 45.93922 7.57750 11171 ft 154 kts 149°
2026-04-18 09:11 45.92999 7.58399 11537 ft 146 kts 163°
2026-04-18 09:11 45.92012 7.58187 11640 ft 157 kts 193°
2026-04-18 09:12 45.90861 7.58562 10963 ft 190 kts 136°
2026-04-18 09:12 45.90442 7.60449 10137 ft 203 kts 104°
2026-04-18 09:12 45.90015 7.62374 9699 ft 190 kts 111°
2026-04-18 09:12 45.89848 7.64066 9639 ft 162 kts 81°
2026-04-18 09:13 45.89900 7.65673 9681 ft 160 kts 85°
2026-04-18 09:13 45.89995 7.67298 9486 ft 165 kts 77°
2026-04-18 09:13 45.90184 7.68928 9366 ft 165 kts 81°
2026-04-18 09:13 45.90294 7.70523 9454 ft 159 kts 88°
2026-04-18 09:14 45.89934 7.71967 9639 ft 165 kts 129°
2026-04-18 09:14 45.89260 7.73304 9788 ft 167 kts 106°
2026-04-18 09:14 45.89423 7.74851 9984 ft 143 kts 71°
2026-04-18 09:14 45.89724 7.76218 10322 ft 140 kts 73°
2026-04-18 09:15 45.89792 7.77588 10724 ft 138 kts 97°
2026-04-18 09:15 45.89371 7.78838 10980 ft 149 kts 117°
2026-04-18 09:15 45.89234 7.80370 10935 ft 161 kts 81°
2026-04-18 09:15 45.89390 7.81988 11107 ft 164 kts 79°
2026-04-18 09:16 45.89511 7.83567 11286 ft 158 kts 81°
2026-04-18 09:16 45.89644 7.85137 11496 ft 156 kts 84°
2026-04-18 09:16 45.89681 7.86549 11587 ft 137 kts 81°
2026-04-18 09:16 45.89854 7.88040 11503 ft 160 kts 73°
2026-04-18 09:17 45.90339 7.89561 11349 ft 174 kts 54°
2026-04-18 09:17 45.90942 7.91156 11140 ft 188 kts 63°
2026-04-18 09:17 45.91505 7.92850 11093 ft 188 kts 63°
2026-04-18 09:17 45.92096 7.94522 11146 ft 183 kts 52°
2026-04-18 09:18 45.92584 7.96221 11124 ft 185 kts 64°
2026-04-18 09:18 45.93092 7.97804 11155 ft 170 kts 63°
2026-04-18 09:18 45.93557 7.99374 11190 ft 176 kts 64°
2026-04-18 09:18 45.94053 8.00962 11197 ft 173 kts 63°
2026-04-18 09:19 45.94550 8.02551 11210 ft 174 kts 61°
2026-04-18 09:19 45.95027 8.04127 11163 ft 174 kts 65°
2026-04-18 09:19 45.95486 8.05708 11106 ft 171 kts 66°
2026-04-18 09:19 45.96000 8.07223 11186 ft 169 kts 63°
2026-04-18 09:20 45.96502 8.08797 11180 ft 175 kts 58°
2026-04-18 09:20 45.97008 8.10373 11154 ft 182 kts 66°
2026-04-18 09:20 45.97536 8.12029 11163 ft 178 kts 57°
2026-04-18 09:20 45.98061 8.13568 11164 ft 169 kts 74°
2026-04-18 09:21 45.98440 8.15135 11081 ft 170 kts 62°
2026-04-18 09:21 45.98957 8.16732 10928 ft 178 kts 59°
2026-04-18 09:21 45.99509 8.18386 10641 ft 190 kts 63°
2026-04-18 09:21 46.00087 8.20173 10040 ft 205 kts 64°
2026-04-18 09:22 46.00673 8.22038 9814 ft 208 kts 70°
2026-04-18 09:22 46.00643 8.24055 9531 ft 197 kts 103°
2026-04-18 09:22 46.00347 8.25889 9247 ft 182 kts 104°
2026-04-18 09:22 46.00054 8.27660 9018 ft 184 kts 103°
2026-04-18 09:23 45.99765 8.29413 8765 ft 177 kts 103°
2026-04-18 09:23 45.99487 8.31142 8519 ft 177 kts 103°
2026-04-18 09:23 45.99201 8.32848 8258 ft 172 kts 103°
2026-04-18 09:23 45.98915 8.34549 8001 ft 178 kts 103°
2026-04-18 09:24 45.98627 8.36285 7755 ft 178 kts 104°
2026-04-18 09:24 45.98336 8.37995 7513 ft 179 kts 104°
2026-04-18 09:24 45.97983 8.39718 7266 ft 178 kts 107°
2026-04-18 09:24 45.97593 8.41413 7014 ft 177 kts 108°
2026-04-18 09:25 45.97203 8.43091 6772 ft 177 kts 109°
2026-04-18 09:25 45.96824 8.44773 6526 ft 177 kts 108°
2026-04-18 09:25 45.96444 8.46438 6272 ft 175 kts 109°
2026-04-18 09:25 45.96067 8.48112 6018 ft 172 kts 108°
2026-04-18 09:26 45.95698 8.49744 5777 ft 175 kts 108°
2026-04-18 09:26 45.95335 8.51383 5518 ft 171 kts 108°
2026-04-18 09:26 45.94970 8.53013 5271 ft 172 kts 108°
2026-04-18 09:26 45.94611 8.54629 5024 ft 167 kts 105°
2026-04-18 09:27 45.94741 8.56264 4960 ft 161 kts 71°
2026-04-18 09:27 45.95125 8.57701 4962 ft 151 kts 69°
2026-04-18 09:27 45.95503 8.59051 4955 ft 142 kts 68°
2026-04-18 09:27 45.95858 8.60305 4958 ft 132 kts 68°
2026-04-18 09:28 45.96185 8.61459 4944 ft 126 kts 68°
2026-04-18 09:28 45.96516 8.62612 4943 ft 123 kts 69°
2026-04-18 09:28 45.96843 8.63745 4946 ft 119 kts 69°
2026-04-18 09:28 45.97164 8.64860 4946 ft 120 kts 68°
2026-04-18 09:29 45.97483 8.65976 4950 ft 121 kts 69°
2026-04-18 09:29 45.97801 8.67084 4944 ft 118 kts 69°
2026-04-18 09:29 45.98124 8.68206 4853 ft 125 kts 69°
2026-04-18 09:29 45.98461 8.69389 4736 ft 132 kts 68°
2026-04-18 09:30 45.98815 8.70609 4607 ft 133 kts 69°
2026-04-18 09:30 45.99168 8.71860 4473 ft 136 kts 68°
2026-04-18 09:30 45.99429 8.73128 4437 ft 129 kts 93°
2026-04-18 09:30 45.99346 8.74371 4459 ft 125 kts 98°
2026-04-18 09:31 45.99210 8.75594 4454 ft 122 kts 102°
2026-04-18 09:31 45.99042 8.76795 4448 ft 121 kts 102°
2026-04-18 09:31 45.98877 8.77960 4451 ft 120 kts 103°
2026-04-18 09:31 45.98709 8.79143 4453 ft 122 kts 102°
2026-04-18 09:32 45.98533 8.80335 4446 ft 121 kts 105°
2026-04-18 09:32 45.98299 8.81507 4393 ft 126 kts 108°
2026-04-18 09:32 45.98042 8.82766 4217 ft 135 kts 108°
2026-04-18 09:32 45.97768 8.84044 4022 ft 135 kts 108°
2026-04-18 09:33 45.97522 8.85310 3826 ft 128 kts 107°
2026-04-18 09:33 45.97276 8.86519 3587 ft 122 kts 108°
2026-04-18 09:33 45.97051 8.87629 3390 ft 111 kts 107°
2026-04-18 09:33 45.96842 8.88664 3189 ft 104 kts 107°
2026-04-18 09:34 45.96647 8.89639 2990 ft 104 kts 107°
2026-04-18 09:34 45.96746 8.90647 2792 ft 110 kts 55°
2026-04-18 09:34 45.97280 8.91404 2626 ft 106 kts 41°
2026-04-18 09:34 45.97931 8.91812 2549 ft 101 kts 15°
2026-04-18 09:35 45.98610 8.92140 2532 ft 107 kts 18°
2026-04-18 09:35 45.99344 8.92501 2480 ft 111 kts 17°
2026-04-18 09:35 46.00007 8.92819 2430 ft 101 kts 21°
2026-04-18 09:35 46.00561 8.93415 2307 ft 98 kts 46°
2026-04-18 09:36 46.01142 8.93864 2137 ft 100 kts 357°
2026-04-18 09:36 46.01723 8.93369 1888 ft 93 kts 317°
2026-04-18 09:36 46.02068 8.92607 1613 ft 99 kts 273°
2026-04-18 09:36 46.01881 8.91744 1399 ft 92 kts 212°
2026-04-18 09:37 46.01280 8.91461 1077 ft 87 kts 198°
2026-04-18 09:37 46.00915 8.91292 942 ft 83 kts 199°
2026-04-18 09:37 46.00473 8.91075 901 ft 45 kts 198°
2026-04-18 09:37 46.00193 8.90945 897 ft 22 kts 201°
2026-04-18 09:38 46.00147 8.90849 897 ft 8 kts 275°
2026-04-18 09:38 46.00162 8.90820 897 ft 5 kts 352°
2026-04-18 09:38 46.00165 8.90820 897 ft 0 kts
2026-04-18 09:38 46.00170 8.90821 897 ft 5 kts 14°
2026-04-18 09:39 46.00209 8.90821 897 ft 6 kts 298°
2026-04-18 09:39 46.00217 8.90769 898 ft 5 kts 244°
2026-04-18 09:39 46.00189 8.90754 898 ft 3 kts 198°
2026-04-18 09:39 46.00179 8.90749 898 ft 0 kts 197°